sensor_id;sensor_type;location;lat;lon;timestamp;pressure;altitude;pressure_sealevel;temperature;humidity
71559;BME280;59382;43.852;25.952;2022-10-31T00:02:10;101523.56;;;18.31;49.57
71559;BME280;59382;43.852;25.952;2022-10-31T00:04:38;101524.66;;;18.30;49.50
71559;BME280;59382;43.852;25.952;2022-10-31T00:07:04;101504.72;;;18.18;49.48
71559;BME280;59382;43.852;25.952;2022-10-31T00:09:29;101531.88;;;18.36;49.56
71559;BME280;59382;43.852;25.952;2022-10-31T00:11:55;101521.91;;;18.30;49.60
71559;BME280;59382;43.852;25.952;2022-10-31T00:14:20;101542.13;;;18.40;49.36
71559;BME280;59382;43.852;25.952;2022-10-31T00:16:46;101516.06;;;18.38;49.50
71559;BME280;59382;43.852;25.952;2022-10-31T00:19:11;101509.91;;;18.31;49.39
71559;BME280;59382;43.852;25.952;2022-10-31T00:21:37;101525.34;;;18.37;49.40
71559;BME280;59382;43.852;25.952;2022-10-31T00:24:03;101514.69;;;18.24;49.34
71559;BME280;59382;43.852;25.952;2022-10-31T00:26:30;101534.16;;;18.39;49.37
71559;BME280;59382;43.852;25.952;2022-10-31T00:28:57;101534.97;;;18.39;49.61
71559;BME280;59382;43.852;25.952;2022-10-31T00:31:23;101530.81;;;18.37;49.31
71559;BME280;59382;43.852;25.952;2022-10-31T00:33:48;101519.66;;;18.27;49.38
71559;BME280;59382;43.852;25.952;2022-10-31T00:36:19;101539.47;;;18.34;49.36
71559;BME280;59382;43.852;25.952;2022-10-31T00:38:45;101524.78;;;18.23;49.25
71559;BME280;59382;43.852;25.952;2022-10-31T00:41:12;101521.59;;;18.15;49.38
71559;BME280;59382;43.852;25.952;2022-10-31T00:43:38;101541.81;;;18.14;49.80
71559;BME280;59382;43.852;25.952;2022-10-31T00:46:03;101542.28;;;18.11;49.60
71559;BME280;59382;43.852;25.952;2022-10-31T00:48:29;101541.69;;;18.09;49.84
71559;BME280;59382;43.852;25.952;2022-10-31T00:50:55;101546.19;;;18.15;49.86
71559;BME280;59382;43.852;25.952;2022-10-31T00:53:21;101532.41;;;18.10;49.62
71559;BME280;59382;43.852;25.952;2022-10-31T00:55:47;101541.66;;;18.20;49.58
71559;BME280;59382;43.852;25.952;2022-10-31T00:58:12;101545.09;;;18.16;49.25
71559;BME280;59382;43.852;25.952;2022-10-31T01:04:00;101527.19;;;18.08;49.57
71559;BME280;59382;43.852;25.952;2022-10-31T01:06:25;101545.09;;;18.16;49.55
71559;BME280;59382;43.852;25.952;2022-10-31T01:08:51;101545.94;;;18.16;49.59
71559;BME280;59382;43.852;25.952;2022-10-31T01:11:22;101538.00;;;18.15;49.80
71559;BME280;59382;43.852;25.952;2022-10-31T01:13:53;101535.00;;;18.16;49.77
71559;BME280;59382;43.852;25.952;2022-10-31T01:16:21;101546.38;;;18.25;49.43
71559;BME280;59382;43.852;25.952;2022-10-31T01:18:50;101539.34;;;18.29;49.48
71559;BME280;59382;43.852;25.952;2022-10-31T01:23:44;101530.59;;;18.27;49.31
71559;BME280;59382;43.852;25.952;2022-10-31T01:26:15;101523.44;;;18.26;49.40
71559;BME280;59382;43.852;25.952;2022-10-31T01:28:55;101516.50;;;18.18;49.48
71559;BME280;59382;43.852;25.952;2022-10-31T01:31:23;101528.22;;;18.19;49.46
71559;BME280;59382;43.852;25.952;2022-10-31T01:33:49;101528.38;;;18.12;49.74
71559;BME280;59382;43.852;25.952;2022-10-31T01:36:22;101540.13;;;18.13;49.76
71559;BME280;59382;43.852;25.952;2022-10-31T01:38:49;101537.06;;;18.09;49.67
71559;BME280;59382;43.852;25.952;2022-10-31T01:41:18;101532.31;;;18.05;49.73
71559;BME280;59382;43.852;25.952;2022-10-31T01:43:48;101535.63;;;18.07;49.79
71559;BME280;59382;43.852;25.952;2022-10-31T01:46:16;101555.47;;;18.14;49.95
71559;BME280;59382;43.852;25.952;2022-10-31T01:48:43;101553.56;;;18.03;49.74
71559;BME280;59382;43.852;25.952;2022-10-31T01:51:11;101549.66;;;17.99;49.94
71559;BME280;59382;43.852;25.952;2022-10-31T01:53:38;101578.63;;;18.00;50.04
71559;BME280;59382;43.852;25.952;2022-10-31T01:56:04;101575.53;;;17.85;50.44
71559;BME280;59382;43.852;25.952;2022-10-31T01:58:31;101577.44;;;17.73;50.53
71559;BME280;59382;43.852;25.952;2022-10-31T02:00:59;101578.53;;;17.72;50.65
71559;BME280;59382;43.852;25.952;2022-10-31T02:03:26;101578.06;;;17.63;50.71
71559;BME280;59382;43.852;25.952;2022-10-31T02:05:55;101566.28;;;17.63;50.83
71559;BME280;59382;43.852;25.952;2022-10-31T02:08:30;101566.78;;;17.59;50.86
71559;BME280;59382;43.852;25.952;2022-10-31T02:10:58;101596.69;;;17.78;50.94
71559;BME280;59382;43.852;25.952;2022-10-31T02:13:25;101582.09;;;17.72;50.67
71559;BME280;59382;43.852;25.952;2022-10-31T02:15:53;101574.63;;;17.68;50.88
71559;BME280;59382;43.852;25.952;2022-10-31T02:18:20;101592.16;;;17.72;50.93
71559;BME280;59382;43.852;25.952;2022-10-31T02:23:44;101581.34;;;17.65;51.13
71559;BME280;59382;43.852;25.952;2022-10-31T02:32:07;101595.72;;;17.60;51.30
71559;BME280;59382;43.852;25.952;2022-10-31T02:37:38;101603.31;;;17.58;51.60
71559;BME280;59382;43.852;25.952;2022-10-31T02:48:26;101608.88;;;17.52;51.55
71559;BME280;59382;43.852;25.952;2022-10-31T02:50:56;101590.47;;;17.47;51.80
71559;BME280;59382;43.852;25.952;2022-10-31T02:53:23;101596.56;;;17.49;51.45
71559;BME280;59382;43.852;25.952;2022-10-31T02:55:59;101616.59;;;17.55;51.59
71559;BME280;59382;43.852;25.952;2022-10-31T02:58:27;101607.00;;;17.52;51.39
71559;BME280;59382;43.852;25.952;2022-10-31T03:06:28;101621.34;;;17.59;51.04
71559;BME280;59382;43.852;25.952;2022-10-31T03:09:04;101619.31;;;17.55;51.18
71559;BME280;59382;43.852;25.952;2022-10-31T03:11:50;101637.25;;;17.51;51.35
71559;BME280;59382;43.852;25.952;2022-10-31T03:17:29;101638.28;;;17.50;51.37
71559;BME280;59382;43.852;25.952;2022-10-31T03:20:00;101635.78;;;17.48;51.43
71559;BME280;59382;43.852;25.952;2022-10-31T03:22:28;101637.47;;;17.49;51.41
71559;BME280;59382;43.852;25.952;2022-10-31T03:24:55;101648.63;;;17.48;51.53
71559;BME280;59382;43.852;25.952;2022-10-31T03:27:27;101650.34;;;17.42;51.69
71559;BME280;59382;43.852;25.952;2022-10-31T03:29:57;101655.91;;;17.36;51.67
71559;BME280;59382;43.852;25.952;2022-10-31T03:32:31;101644.13;;;17.24;51.75
71559;BME280;59382;43.852;25.952;2022-10-31T03:35:01;101646.63;;;17.25;51.60
71559;BME280;59382;43.852;25.952;2022-10-31T03:37:29;101649.13;;;17.27;51.74
71559;BME280;59382;43.852;25.952;2022-10-31T03:39:58;101639.28;;;17.26;51.63
71559;BME280;59382;43.852;25.952;2022-10-31T03:42:28;101656.16;;;17.34;51.75
71559;BME280;59382;43.852;25.952;2022-10-31T03:44:59;101664.44;;;17.39;51.51
71559;BME280;59382;43.852;25.952;2022-10-31T03:47:28;101641.75;;;17.27;51.51
71559;BME280;59382;43.852;25.952;2022-10-31T03:49:54;101666.72;;;17.42;51.39
71559;BME280;59382;43.852;25.952;2022-10-31T03:52:32;101660.06;;;17.38;51.19
71559;BME280;59382;43.852;25.952;2022-10-31T03:55:15;101669.44;;;17.42;51.34
71559;BME280;59382;43.852;25.952;2022-10-31T03:58:02;101667.78;;;17.41;51.27
71559;BME280;59382;43.852;25.952;2022-10-31T04:00:29;101657.81;;;17.35;51.18
71559;BME280;59382;43.852;25.952;2022-10-31T04:03:05;101662.53;;;17.28;51.23
71559;BME280;59382;43.852;25.952;2022-10-31T04:05:32;101648.88;;;17.17;51.20
71559;BME280;59382;43.852;25.952;2022-10-31T04:08:00;101672.25;;;17.24;51.22
71559;BME280;59382;43.852;25.952;2022-10-31T04:10:28;101671.19;;;17.25;51.17
71559;BME280;59382;43.852;25.952;2022-10-31T04:13:01;101667.13;;;17.16;51.36
71559;BME280;59382;43.852;25.952;2022-10-31T04:15:28;101681.03;;;17.26;51.32
71559;BME280;59382;43.852;25.952;2022-10-31T04:17:58;101664.38;;;17.16;51.21
71559;BME280;59382;43.852;25.952;2022-10-31T04:20:38;101685.50;;;17.21;51.36
71559;BME280;59382;43.852;25.952;2022-10-31T04:23:05;101697.63;;;17.25;51.38
71559;BME280;59382;43.852;25.952;2022-10-31T04:25:39;101675.44;;;17.21;51.40
71559;BME280;59382;43.852;25.952;2022-10-31T04:28:04;101663.53;;;17.16;51.61
71559;BME280;59382;43.852;25.952;2022-10-31T04:30:30;101679.09;;;17.15;51.42
71559;BME280;59382;43.852;25.952;2022-10-31T04:32:55;101692.13;;;17.13;51.60
71559;BME280;59382;43.852;25.952;2022-10-31T04:35:21;101678.94;;;17.10;51.59
71559;BME280;59382;43.852;25.952;2022-10-31T04:37:46;101664.66;;;16.97;51.68
71559;BME280;59382;43.852;25.952;2022-10-31T04:40:11;101667.09;;;16.87;52.19
71559;BME280;59382;43.852;25.952;2022-10-31T04:42:37;101677.78;;;16.88;52.04
71559;BME280;59382;43.852;25.952;2022-10-31T04:45:03;101681.94;;;16.91;52.19
71559;BME280;59382;43.852;25.952;2022-10-31T04:47:31;101693.34;;;16.99;52.04
71559;BME280;59382;43.852;25.952;2022-10-31T04:49:57;101679.81;;;16.93;51.85
71559;BME280;59382;43.852;25.952;2022-10-31T04:52:23;101698.50;;;17.07;51.93
71559;BME280;59382;43.852;25.952;2022-10-31T04:54:48;101706.22;;;17.10;51.81
71559;BME280;59382;43.852;25.952;2022-10-31T04:57:14;101703.50;;;17.10;51.86
71559;BME280;59382;43.852;25.952;2022-10-31T04:59:39;101708.34;;;17.08;51.72
71559;BME280;59382;43.852;25.952;2022-10-31T05:02:05;101689.88;;;16.92;51.88
71559;BME280;59382;43.852;25.952;2022-10-31T05:04:30;101706.16;;;16.99;52.07
71559;BME280;59382;43.852;25.952;2022-10-31T05:06:56;101700.34;;;16.95;51.92
71559;BME280;59382;43.852;25.952;2022-10-31T05:09:21;101718.34;;;16.96;52.10
71559;BME280;59382;43.852;25.952;2022-10-31T05:11:47;101708.81;;;16.87;52.14
71559;BME280;59382;43.852;25.952;2022-10-31T05:14:12;101699.38;;;16.90;52.18
71559;BME280;59382;43.852;25.952;2022-10-31T05:16:38;101707.31;;;16.91;52.43
71559;BME280;59382;43.852;25.952;2022-10-31T05:19:03;101707.44;;;16.96;52.26
71559;BME280;59382;43.852;25.952;2022-10-31T05:21:29;101701.25;;;16.89;52.33
71559;BME280;59382;43.852;25.952;2022-10-31T05:23:54;101715.41;;;16.98;52.10
71559;BME280;59382;43.852;25.952;2022-10-31T05:26:20;101707.09;;;16.93;52.10
71559;BME280;59382;43.852;25.952;2022-10-31T05:28:45;101700.19;;;16.90;52.25
71559;BME280;59382;43.852;25.952;2022-10-31T05:31:11;101705.34;;;16.80;52.19
71559;BME280;59382;43.852;25.952;2022-10-31T05:33:36;101703.53;;;16.74;52.39
71559;BME280;59382;43.852;25.952;2022-10-31T05:36:02;101724.19;;;16.82;52.48
71559;BME280;59382;43.852;25.952;2022-10-31T05:38:27;101726.91;;;16.82;52.48
71559;BME280;59382;43.852;25.952;2022-10-31T05:40:56;101735.72;;;16.84;52.34
71559;BME280;59382;43.852;25.952;2022-10-31T05:43:27;101727.59;;;16.77;52.39
71559;BME280;59382;43.852;25.952;2022-10-31T05:45:53;101729.53;;;16.77;52.52
71559;BME280;59382;43.852;25.952;2022-10-31T05:48:19;101734.41;;;16.86;52.35
71559;BME280;59382;43.852;25.952;2022-10-31T05:50:44;101741.06;;;16.90;52.32
71559;BME280;59382;43.852;25.952;2022-10-31T05:53:10;101737.66;;;16.95;52.25
71559;BME280;59382;43.852;25.952;2022-10-31T05:55:36;101746.00;;;17.00;51.96
71559;BME280;59382;43.852;25.952;2022-10-31T05:58:01;101740.16;;;16.96;52.08
71559;BME280;59382;43.852;25.952;2022-10-31T06:00:27;101738.06;;;16.98;51.96
71559;BME280;59382;43.852;25.952;2022-10-31T06:03:00;101741.75;;;17.04;51.68
71559;BME280;59382;43.852;25.952;2022-10-31T06:05:27;101746.44;;;17.15;51.73
71559;BME280;59382;43.852;25.952;2022-10-31T06:07:53;101747.88;;;17.17;51.77
71559;BME280;59382;43.852;25.952;2022-10-31T06:10:18;101749.63;;;17.12;51.83
71559;BME280;59382;43.852;25.952;2022-10-31T06:12:46;101750.13;;;17.20;51.80
71559;BME280;59382;43.852;25.952;2022-10-31T06:15:12;101750.28;;;17.25;51.72
71559;BME280;59382;43.852;25.952;2022-10-31T06:17:38;101735.56;;;17.26;51.65
71559;BME280;59382;43.852;25.952;2022-10-31T06:20:04;101740.38;;;17.42;51.55
71559;BME280;59382;43.852;25.952;2022-10-31T06:22:31;101747.88;;;17.77;50.86
71559;BME280;59382;43.852;25.952;2022-10-31T06:24:57;101748.19;;;18.10;50.44
71559;BME280;59382;43.852;25.952;2022-10-31T06:27:23;101771.06;;;18.50;49.82
71559;BME280;59382;43.852;25.952;2022-10-31T06:29:48;101757.63;;;18.71;49.36
71559;BME280;59382;43.852;25.952;2022-10-31T06:32:14;101776.59;;;19.01;49.20
71559;BME280;59382;43.852;25.952;2022-10-31T06:34:42;101771.25;;;19.06;48.57
71559;BME280;59382;43.852;25.952;2022-10-31T06:37:09;101774.59;;;18.96;48.78
71559;BME280;59382;43.852;25.952;2022-10-31T06:39:40;101787.06;;;19.04;49.00
71559;BME280;59382;43.852;25.952;2022-10-31T06:42:08;101778.31;;;19.18;48.88
71559;BME280;59382;43.852;25.952;2022-10-31T06:44:37;101775.69;;;19.35;48.49
71559;BME280;59382;43.852;25.952;2022-10-31T06:47:06;101763.41;;;19.49;47.99
71559;BME280;59382;43.852;25.952;2022-10-31T06:49:32;101783.09;;;19.79;47.62
71559;BME280;59382;43.852;25.952;2022-10-31T06:51:57;101774.00;;;19.90;47.29
71559;BME280;59382;43.852;25.952;2022-10-31T06:54:23;101759.22;;;19.91;46.93
71559;BME280;59382;43.852;25.952;2022-10-31T06:56:49;101787.38;;;20.03;46.92
71559;BME280;59382;43.852;25.952;2022-10-31T06:59:15;101781.91;;;20.03;46.91
71559;BME280;59382;43.852;25.952;2022-10-31T07:01:40;101768.28;;;20.08;46.68
71559;BME280;59382;43.852;25.952;2022-10-31T07:04:15;101778.81;;;20.28;46.31
71559;BME280;59382;43.852;25.952;2022-10-31T07:06:41;101780.94;;;20.42;46.27
71559;BME280;59382;43.852;25.952;2022-10-31T07:09:06;101777.38;;;20.42;45.90
71559;BME280;59382;43.852;25.952;2022-10-31T07:11:32;101782.19;;;20.51;45.77
71559;BME280;59382;43.852;25.952;2022-10-31T07:13:58;101763.75;;;20.47;45.84
71559;BME280;59382;43.852;25.952;2022-10-31T07:16:23;101769.06;;;20.53;45.78
71559;BME280;59382;43.852;25.952;2022-10-31T07:18:49;101782.66;;;20.65;45.48
71559;BME280;59382;43.852;25.952;2022-10-31T07:21:15;101780.81;;;20.70;45.47
71559;BME280;59382;43.852;25.952;2022-10-31T07:23:41;101777.50;;;20.68;45.51
71559;BME280;59382;43.852;25.952;2022-10-31T07:26:07;101773.59;;;20.64;45.55
71559;BME280;59382;43.852;25.952;2022-10-31T07:28:34;101769.75;;;20.65;45.53
71559;BME280;59382;43.852;25.952;2022-10-31T07:31:00;101767.88;;;20.49;45.59
71559;BME280;59382;43.852;25.952;2022-10-31T07:33:26;101775.88;;;20.34;46.05
71559;BME280;59382;43.852;25.952;2022-10-31T07:35:52;101784.03;;;20.29;46.00
71559;BME280;59382;43.852;25.952;2022-10-31T07:38:18;101788.34;;;20.25;46.23
71559;BME280;59382;43.852;25.952;2022-10-31T07:40:44;101786.84;;;20.18;46.46
71559;BME280;59382;43.852;25.952;2022-10-31T07:43:14;101786.97;;;20.11;46.53
71559;BME280;59382;43.852;25.952;2022-10-31T07:45:43;101786.31;;;20.04;46.79
71559;BME280;59382;43.852;25.952;2022-10-31T07:48:09;101798.19;;;20.10;46.77
71559;BME280;59382;43.852;25.952;2022-10-31T07:50:34;101782.50;;;20.05;46.58
71559;BME280;59382;43.852;25.952;2022-10-31T07:53:02;101803.97;;;20.25;46.66
71559;BME280;59382;43.852;25.952;2022-10-31T07:55:35;101801.63;;;20.33;46.33
71559;BME280;59382;43.852;25.952;2022-10-31T07:58:12;101803.28;;;20.34;45.97
71559;BME280;59382;43.852;25.952;2022-10-31T08:00:43;101805.72;;;20.31;46.10
71559;BME280;59382;43.852;25.952;2022-10-31T08:03:12;101805.78;;;20.19;46.43
71559;BME280;59382;43.852;25.952;2022-10-31T08:05:40;101804.72;;;20.09;46.54
71559;BME280;59382;43.852;25.952;2022-10-31T08:08:07;101786.56;;;20.03;46.45
71559;BME280;59382;43.852;25.952;2022-10-31T08:10:33;101806.75;;;20.13;46.54
71559;BME280;59382;43.852;25.952;2022-10-31T08:13:05;101798.09;;;20.05;46.74
71559;BME280;59382;43.852;25.952;2022-10-31T08:15:33;101793.84;;;19.97;46.57
71559;BME280;59382;43.852;25.952;2022-10-31T08:18:02;101801.56;;;20.00;46.75
71559;BME280;59382;43.852;25.952;2022-10-31T08:20:28;101803.41;;;19.95;46.84
71559;BME280;59382;43.852;25.952;2022-10-31T08:22:59;101802.06;;;19.97;46.62
71559;BME280;59382;43.852;25.952;2022-10-31T08:25:27;101800.53;;;20.01;46.76
71559;BME280;59382;43.852;25.952;2022-10-31T08:27:54;101792.78;;;19.98;46.79
71559;BME280;59382;43.852;25.952;2022-10-31T08:30:25;101782.06;;;19.97;46.85
71559;BME280;59382;43.852;25.952;2022-10-31T08:35:28;101798.13;;;20.21;46.20
71559;BME280;59382;43.852;25.952;2022-10-31T08:37:55;101803.78;;;20.31;46.20
71559;BME280;59382;43.852;25.952;2022-10-31T08:40:22;101804.13;;;20.35;46.26
71559;BME280;59382;43.852;25.952;2022-10-31T08:42:55;101803.28;;;20.34;46.11
71559;BME280;59382;43.852;25.952;2022-10-31T08:45:21;101798.50;;;20.41;46.08
71559;BME280;59382;43.852;25.952;2022-10-31T08:47:46;101789.16;;;20.42;45.99
71559;BME280;59382;43.852;25.952;2022-10-31T08:50:12;101810.25;;;20.58;45.95
71559;BME280;59382;43.852;25.952;2022-10-31T08:52:37;101796.78;;;20.57;45.85
71559;BME280;59382;43.852;25.952;2022-10-31T08:55:06;101801.63;;;20.66;45.86
71559;BME280;59382;43.852;25.952;2022-10-31T08:57:32;101804.59;;;20.81;45.57
71559;BME280;59382;43.852;25.952;2022-10-31T09:00:07;101810.47;;;20.90;45.25
71559;BME280;59382;43.852;25.952;2022-10-31T09:02:32;101810.88;;;20.82;45.30
71559;BME280;59382;43.852;25.952;2022-10-31T09:04:58;101811.88;;;20.76;45.53
71559;BME280;59382;43.852;25.952;2022-10-31T09:07:23;101807.31;;;20.81;45.76
71559;BME280;59382;43.852;25.952;2022-10-31T09:09:52;101802.81;;;20.92;45.55
71559;BME280;59382;43.852;25.952;2022-10-31T09:12:17;101809.72;;;20.94;45.45
71559;BME280;59382;43.852;25.952;2022-10-31T09:14:43;101803.88;;;20.91;45.28
71559;BME280;59382;43.852;25.952;2022-10-31T09:17:11;101788.13;;;20.81;45.44
71559;BME280;59382;43.852;25.952;2022-10-31T09:19:37;101803.06;;;20.90;45.63
71559;BME280;59382;43.852;25.952;2022-10-31T09:22:02;101811.38;;;20.95;45.54
71559;BME280;59382;43.852;25.952;2022-10-31T09:24:28;101799.09;;;20.98;45.51
71559;BME280;59382;43.852;25.952;2022-10-31T09:26:53;101788.38;;;20.96;45.71
71559;BME280;59382;43.852;25.952;2022-10-31T09:29:19;101803.22;;;21.00;45.69
71559;BME280;59382;43.852;25.952;2022-10-31T09:31:44;101780.13;;;20.96;45.83
71559;BME280;59382;43.852;25.952;2022-10-31T09:34:10;101793.72;;;21.08;45.67
71559;BME280;59382;43.852;25.952;2022-10-31T09:36:36;101783.06;;;21.11;45.64
71559;BME280;59382;43.852;25.952;2022-10-31T09:39:02;101769.59;;;21.10;45.59
71559;BME280;59382;43.852;25.952;2022-10-31T09:49:57;101781.00;;;21.23;45.37
71559;BME280;59382;43.852;25.952;2022-10-31T09:52:33;101788.81;;;21.31;45.31
71559;BME280;59382;43.852;25.952;2022-10-31T09:55:09;101774.47;;;21.24;45.43
71559;BME280;59382;43.852;25.952;2022-10-31T09:57:40;101765.72;;;21.27;45.27
71559;BME280;59382;43.852;25.952;2022-10-31T10:00:10;101772.44;;;21.42;45.27
71559;BME280;59382;43.852;25.952;2022-10-31T10:02:44;101772.56;;;21.52;44.95
71559;BME280;59382;43.852;25.952;2022-10-31T10:05:14;101781.72;;;21.62;44.81
71559;BME280;59382;43.852;25.952;2022-10-31T10:24:03;101765.00;;;21.64;44.88
71559;BME280;59382;43.852;25.952;2022-10-31T10:26:38;101760.59;;;21.63;44.73
71559;BME280;59382;43.852;25.952;2022-10-31T10:31:43;101748.91;;;21.46;45.15
71559;BME280;59382;43.852;25.952;2022-10-31T10:34:22;101757.94;;;21.46;44.98
71559;BME280;59382;43.852;25.952;2022-10-31T10:37:01;101740.00;;;21.38;45.12
71559;BME280;59382;43.852;25.952;2022-10-31T10:39:50;101754.94;;;21.48;45.05
71559;BME280;59382;43.852;25.952;2022-10-31T10:42:17;101736.81;;;21.47;45.12
71559;BME280;59382;43.852;25.952;2022-10-31T10:45:14;101734.09;;;21.52;44.97
71559;BME280;59382;43.852;25.952;2022-10-31T10:48:26;101746.81;;;21.58;44.50
71559;BME280;59382;43.852;25.952;2022-10-31T10:50:57;101749.03;;;21.61;44.67
71559;BME280;59382;43.852;25.952;2022-10-31T10:59:09;101740.84;;;21.66;44.73
71559;BME280;59382;43.852;25.952;2022-10-31T11:01:36;101725.72;;;21.63;44.56
71559;BME280;59382;43.852;25.952;2022-10-31T11:04:07;101738.97;;;21.71;44.61
71559;BME280;59382;43.852;25.952;2022-10-31T11:06:39;101727.38;;;21.64;44.54
71559;BME280;59382;43.852;25.952;2022-10-31T11:09:10;101722.16;;;21.63;44.49
71559;BME280;59382;43.852;25.952;2022-10-31T11:11:38;101733.22;;;21.73;44.45
71559;BME280;59382;43.852;25.952;2022-10-31T11:14:13;101718.34;;;21.69;44.58
71559;BME280;59382;43.852;25.952;2022-10-31T11:16:50;101707.88;;;21.66;44.45
71559;BME280;59382;43.852;25.952;2022-10-31T11:19:22;101722.84;;;21.75;44.59
71559;BME280;59382;43.852;25.952;2022-10-31T11:21:49;101702.47;;;21.71;44.49
71559;BME280;59382;43.852;25.952;2022-10-31T11:24:23;101706.84;;;21.72;44.29
71559;BME280;59382;43.852;25.952;2022-10-31T11:26:50;101714.66;;;21.80;44.48
71559;BME280;59382;43.852;25.952;2022-10-31T11:29:23;101716.88;;;21.83;44.57
71559;BME280;59382;43.852;25.952;2022-10-31T11:31:53;101710.56;;;21.82;44.54
71559;BME280;59382;43.852;25.952;2022-10-31T11:34:36;101720.19;;;21.85;44.39
71559;BME280;59382;43.852;25.952;2022-10-31T11:37:15;101711.41;;;21.88;44.43
71559;BME280;59382;43.852;25.952;2022-10-31T11:39:45;101700.41;;;21.88;44.43
71559;BME280;59382;43.852;25.952;2022-10-31T11:42:23;101702.91;;;21.89;44.24
71559;BME280;59382;43.852;25.952;2022-10-31T11:44:49;101689.44;;;21.88;44.37
71559;BME280;59382;43.852;25.952;2022-10-31T11:47:17;101686.22;;;21.96;44.30
71559;BME280;59382;43.852;25.952;2022-10-31T11:49:45;101692.00;;;21.99;44.15
71559;BME280;59382;43.852;25.952;2022-10-31T11:52:20;101688.44;;;22.04;44.00
71559;BME280;59382;43.852;25.952;2022-10-31T11:54:53;101677.97;;;22.01;44.16
71559;BME280;59382;43.852;25.952;2022-10-31T11:57:29;101692.31;;;22.03;43.88
71559;BME280;59382;43.852;25.952;2022-10-31T12:00:01;101691.47;;;22.02;44.05
71559;BME280;59382;43.852;25.952;2022-10-31T12:02:30;101679.66;;;22.02;44.15
71559;BME280;59382;43.852;25.952;2022-10-31T12:07:24;101677.19;;;22.00;43.89
71559;BME280;59382;43.852;25.952;2022-10-31T12:09:50;101678.56;;;22.03;44.28
71559;BME280;59382;43.852;25.952;2022-10-31T12:15:25;101681.91;;;22.10;43.54
71559;BME280;59382;43.852;25.952;2022-10-31T12:23:47;101675.91;;;22.18;43.75
71559;BME280;59382;43.852;25.952;2022-10-31T12:27:14;101649.97;;;22.04;43.61
71559;BME280;59382;43.852;25.952;2022-10-31T12:40:27;101668.19;;;22.15;43.56
71559;BME280;59382;43.852;25.952;2022-10-31T12:56:38;101677.56;;;22.19;43.54
71559;BME280;59382;43.852;25.952;2022-10-31T12:59:09;101674.81;;;22.19;43.50
71559;BME280;59382;43.852;25.952;2022-10-31T13:01:45;101673.69;;;22.15;43.61
71559;BME280;59382;43.852;25.952;2022-10-31T13:07:01;101676.41;;;22.10;43.37
71559;BME280;59382;43.852;25.952;2022-10-31T13:09:37;101662.06;;;22.03;43.44
71559;BME280;59382;43.852;25.952;2022-10-31T13:12:09;101668.69;;;22.07;43.39
71559;BME280;59382;43.852;25.952;2022-10-31T13:14:44;101672.06;;;22.14;43.42
71559;BME280;59382;43.852;25.952;2022-10-31T13:17:54;101673.69;;;22.15;43.51
71559;BME280;59382;43.852;25.952;2022-10-31T13:20:16;101680.03;;;22.15;43.33
71559;BME280;59382;43.852;25.952;2022-10-31T13:22:46;101670.38;;;22.13;43.48
71559;BME280;59382;43.852;25.952;2022-10-31T13:25:24;101670.63;;;22.06;43.54
71559;BME280;59382;43.852;25.952;2022-10-31T13:27:58;101664.88;;;22.08;43.32
71559;BME280;59382;43.852;25.952;2022-10-31T13:30:28;101678.34;;;22.14;43.48
71559;BME280;59382;43.852;25.952;2022-10-31T13:33:09;101672.59;;;22.11;43.53
71559;BME280;59382;43.852;25.952;2022-10-31T13:44:00;101673.09;;;22.08;43.83
71559;BME280;59382;43.852;25.952;2022-10-31T13:48:57;101666.44;;;21.99;43.74
71559;BME280;59382;43.852;25.952;2022-10-31T13:51:29;101675.81;;;22.03;43.79
71559;BME280;59382;43.852;25.952;2022-10-31T13:56:23;101678.78;;;21.96;43.75
71559;BME280;59382;43.852;25.952;2022-10-31T14:01:25;101649.78;;;21.79;44.01
71559;BME280;59382;43.852;25.952;2022-10-31T14:04:16;101676.88;;;21.97;44.09
71559;BME280;59382;43.852;25.952;2022-10-31T14:06:52;101674.38;;;21.95;44.09
71559;BME280;59382;43.852;25.952;2022-10-31T14:09:31;101679.03;;;21.95;43.89
71559;BME280;59382;43.852;25.952;2022-10-31T14:11:59;101678.50;;;21.93;43.96
71559;BME280;59382;43.852;25.952;2022-10-31T14:14:31;101654.75;;;21.77;43.85
71559;BME280;59382;43.852;25.952;2022-10-31T14:16:59;101674.63;;;21.94;43.99
71559;BME280;59382;43.852;25.952;2022-10-31T14:19:25;101676.28;;;21.90;44.00
71559;BME280;59382;43.852;25.952;2022-10-31T14:21:52;101670.19;;;21.83;44.21
71559;BME280;59382;43.852;25.952;2022-10-31T14:26:56;101683.38;;;21.86;44.22
71559;BME280;59382;43.852;25.952;2022-10-31T14:29:25;101680.91;;;21.84;44.45
71559;BME280;59382;43.852;25.952;2022-10-31T14:31:53;101675.66;;;21.83;44.44
71559;BME280;59382;43.852;25.952;2022-10-31T14:42:27;101677.72;;;21.71;44.55
71559;BME280;59382;43.852;25.952;2022-10-31T14:47:35;101663.84;;;21.56;44.67
71559;BME280;59382;43.852;25.952;2022-10-31T14:52:56;101664.91;;;21.50;44.76
71559;BME280;59382;43.852;25.952;2022-10-31T14:55:23;101667.66;;;21.50;44.73
71559;BME280;59382;43.852;25.952;2022-10-31T14:57:54;101669.28;;;21.51;44.62
71559;BME280;59382;43.852;25.952;2022-10-31T15:00:23;101676.16;;;21.53;44.73
71559;BME280;59382;43.852;25.952;2022-10-31T15:05:42;101667.59;;;21.45;45.00
71559;BME280;59382;43.852;25.952;2022-10-31T15:08:25;101660.34;;;21.33;44.98
71559;BME280;59382;43.852;25.952;2022-10-31T15:10:52;101662.00;;;21.34;44.86
71559;BME280;59382;43.852;25.952;2022-10-31T15:13:19;101681.81;;;21.37;45.00
71559;BME280;59382;43.852;25.952;2022-10-31T15:15:47;101670.19;;;21.29;45.28